Accueil
METAR-TAF:

METAR-TAF

Aéroports :

Aéroport de Vigo-Peinador

Vigo, Espagne

latitude: 42-13N, longitude: 008-38W, altitude: 264 m

Observation

Le bulletin a été fait il y a 1 heure et 12 minutes, à 10:30 UTC
Vent 2 kt de direction variable
Température 13°C
Humidité 77%
Pression 1008 hPa
Visibilité 10 km ou plus
Nuages fragmentés à une hauteur de 4800 ft

METAR: LEVX 261030Z VRB02KT 9999 BKN048 13/09 Q1008 NOSIG

Heure: 12:42 (11:42 UTC)

Prévision

Le bulletin a été fait il y a 42 minutes, à 11:00 UTC
Prévision valable du 26 à 12 UTC au 27 à 12 UTC
Vent 7 kt de est
Visibilité 10 km ou plus
Nuages épars à une hauteur de 5000 ft
Probabilité 30%
du 27 à 03 UTC au 27 à 07 UTC
Visibilité: 3000 m
brume

TAF: LEVX 261100Z 2612/2712 09007KT 9999 SCT050 TX13/2615Z TN08/2706Z PROB30 2703/2707 3000 BR

Observations et prévisions météorologiques de plus de 4000 aéroports (messages METAR et TAF).

Les stations disponibles sont représentées par des disques jaunes et rouges sur la carte.

Passer la souris dessus pour voir le nom de la station.

Cliquer dessus pour voir les observations et prévisions météorologiques.

Pour changer de carte: cliquez sur les boutons verts avec une croix noire pour zoomer, sur le bouton vert avec un tiret pour effectuer un zoom arrière, ou sur les flèches vertes pour les cartes adjacentes.


METAR-TAF: